sensor_id;sensor_type;location;lat;lon;timestamp;P1;durP1;ratioP1;P2;durP2;ratioP2
2211;SDS011;48849;48.758;9.158;2022-08-21T00:01:29;3.60;;;2.30;;
2211;SDS011;48849;48.758;9.158;2022-08-21T00:03:56;5.80;;;2.63;;
2211;SDS011;48849;48.758;9.158;2022-08-21T00:06:24;4.27;;;2.50;;
2211;SDS011;48849;48.758;9.158;2022-08-21T00:08:51;4.80;;;2.73;;
2211;SDS011;48849;48.758;9.158;2022-08-21T00:11:18;2.93;;;2.20;;
2211;SDS011;48849;48.758;9.158;2022-08-21T00:13:45;3.13;;;2.30;;
2211;SDS011;48849;48.758;9.158;2022-08-21T00:16:12;7.10;;;2.50;;
2211;SDS011;48849;48.758;9.158;2022-08-21T00:18:39;3.40;;;2.40;;
2211;SDS011;48849;48.758;9.158;2022-08-21T00:21:06;4.13;;;2.20;;
2211;SDS011;48849;48.758;9.158;2022-08-21T00:23:34;2.90;;;2.30;;
2211;SDS011;48849;48.758;9.158;2022-08-21T00:26:01;3.70;;;2.43;;
2211;SDS011;48849;48.758;9.158;2022-08-21T00:28:28;3.23;;;2.40;;
2211;SDS011;48849;48.758;9.158;2022-08-21T00:30:56;6.23;;;3.30;;
2211;SDS011;48849;48.758;9.158;2022-08-21T00:33:23;3.20;;;2.90;;
2211;SDS011;48849;48.758;9.158;2022-08-21T00:35:49;3.90;;;2.73;;
2211;SDS011;48849;48.758;9.158;2022-08-21T00:38:16;6.17;;;3.80;;
2211;SDS011;48849;48.758;9.158;2022-08-21T00:40:46;3.97;;;2.60;;
2211;SDS011;48849;48.758;9.158;2022-08-21T00:43:17;4.30;;;2.60;;
2211;SDS011;48849;48.758;9.158;2022-08-21T00:45:46;4.70;;;2.90;;
2211;SDS011;48849;48.758;9.158;2022-08-21T00:48:13;3.50;;;2.73;;
2211;SDS011;48849;48.758;9.158;2022-08-21T00:50:42;2.60;;;2.40;;
2211;SDS011;48849;48.758;9.158;2022-08-21T00:53:12;4.37;;;2.63;;
2211;SDS011;48849;48.758;9.158;2022-08-21T00:55:40;3.23;;;2.93;;
2211;SDS011;48849;48.758;9.158;2022-08-21T00:58:09;2.93;;;2.20;;
2211;SDS011;48849;48.758;9.158;2022-08-21T01:00:39;5.40;;;2.40;;
2211;SDS011;48849;48.758;9.158;2022-08-21T01:03:09;2.60;;;2.40;;
2211;SDS011;48849;48.758;9.158;2022-08-21T01:05:39;5.40;;;2.57;;
2211;SDS011;48849;48.758;9.158;2022-08-21T01:08:07;4.13;;;2.50;;
2211;SDS011;48849;48.758;9.158;2022-08-21T01:10:35;3.10;;;2.30;;
2211;SDS011;48849;48.758;9.158;2022-08-21T01:13:03;3.90;;;2.80;;
2211;SDS011;48849;48.758;9.158;2022-08-21T01:15:35;3.50;;;2.40;;
2211;SDS011;48849;48.758;9.158;2022-08-21T01:18:04;2.87;;;2.57;;
2211;SDS011;48849;48.758;9.158;2022-08-21T01:20:33;4.43;;;2.70;;
2211;SDS011;48849;48.758;9.158;2022-08-21T01:23:02;3.50;;;2.53;;
2211;SDS011;48849;48.758;9.158;2022-08-21T01:25:30;4.83;;;2.87;;
2211;SDS011;48849;48.758;9.158;2022-08-21T01:27:59;4.87;;;2.67;;
2211;SDS011;48849;48.758;9.158;2022-08-21T01:30:30;3.13;;;2.40;;
2211;SDS011;48849;48.758;9.158;2022-08-21T01:33:01;3.10;;;2.50;;
2211;SDS011;48849;48.758;9.158;2022-08-21T01:35:28;5.60;;;3.00;;
2211;SDS011;48849;48.758;9.158;2022-08-21T01:37:55;4.80;;;2.60;;
2211;SDS011;48849;48.758;9.158;2022-08-21T01:40:23;3.53;;;2.40;;
2211;SDS011;48849;48.758;9.158;2022-08-21T01:42:50;4.97;;;2.33;;
2211;SDS011;48849;48.758;9.158;2022-08-21T01:45:18;4.00;;;2.80;;
2211;SDS011;48849;48.758;9.158;2022-08-21T01:47:45;3.63;;;2.60;;
2211;SDS011;48849;48.758;9.158;2022-08-21T01:50:13;2.60;;;2.20;;
2211;SDS011;48849;48.758;9.158;2022-08-21T01:52:43;3.73;;;2.40;;
2211;SDS011;48849;48.758;9.158;2022-08-21T01:55:11;5.17;;;2.67;;
2211;SDS011;48849;48.758;9.158;2022-08-21T01:57:40;5.60;;;2.83;;
2211;SDS011;48849;48.758;9.158;2022-08-21T02:00:08;4.07;;;2.70;;
2211;SDS011;48849;48.758;9.158;2022-08-21T02:02:37;3.67;;;2.67;;
2211;SDS011;48849;48.758;9.158;2022-08-21T02:05:04;3.77;;;2.30;;
2211;SDS011;48849;48.758;9.158;2022-08-21T02:07:35;3.67;;;2.50;;
2211;SDS011;48849;48.758;9.158;2022-08-21T02:10:03;6.27;;;3.03;;
2211;SDS011;48849;48.758;9.158;2022-08-21T02:12:32;4.30;;;2.60;;
2211;SDS011;48849;48.758;9.158;2022-08-21T02:15:00;4.10;;;2.77;;
2211;SDS011;48849;48.758;9.158;2022-08-21T02:17:35;3.13;;;2.30;;
2211;SDS011;48849;48.758;9.158;2022-08-21T02:20:03;3.90;;;2.50;;
2211;SDS011;48849;48.758;9.158;2022-08-21T02:22:31;3.77;;;2.60;;
2211;SDS011;48849;48.758;9.158;2022-08-21T02:24:57;6.20;;;3.70;;
2211;SDS011;48849;48.758;9.158;2022-08-21T02:27:24;5.80;;;4.17;;
2211;SDS011;48849;48.758;9.158;2022-08-21T02:29:51;4.87;;;2.73;;
2211;SDS011;48849;48.758;9.158;2022-08-21T02:32:20;4.27;;;2.87;;
2211;SDS011;48849;48.758;9.158;2022-08-21T02:34:46;5.10;;;2.77;;
2211;SDS011;48849;48.758;9.158;2022-08-21T02:37:13;3.07;;;2.77;;
2211;SDS011;48849;48.758;9.158;2022-08-21T02:39:40;3.50;;;2.67;;
2211;SDS011;48849;48.758;9.158;2022-08-21T02:42:07;3.07;;;2.40;;
2211;SDS011;48849;48.758;9.158;2022-08-21T02:44:33;5.70;;;2.47;;
2211;SDS011;48849;48.758;9.158;2022-08-21T02:47:00;5.13;;;2.70;;
2211;SDS011;48849;48.758;9.158;2022-08-21T02:49:28;5.07;;;2.83;;
2211;SDS011;48849;48.758;9.158;2022-08-21T02:51:55;3.10;;;2.80;;
2211;SDS011;48849;48.758;9.158;2022-08-21T02:54:21;3.80;;;2.73;;
2211;SDS011;48849;48.758;9.158;2022-08-21T02:56:49;3.63;;;2.53;;
2211;SDS011;48849;48.758;9.158;2022-08-21T02:59:16;3.27;;;2.33;;
2211;SDS011;48849;48.758;9.158;2022-08-21T03:01:42;3.23;;;2.40;;
2211;SDS011;48849;48.758;9.158;2022-08-21T03:04:09;4.83;;;2.60;;
2211;SDS011;48849;48.758;9.158;2022-08-21T03:06:37;5.40;;;2.90;;
2211;SDS011;48849;48.758;9.158;2022-08-21T03:09:04;3.30;;;2.13;;
2211;SDS011;48849;48.758;9.158;2022-08-21T03:11:31;4.30;;;2.73;;
2211;SDS011;48849;48.758;9.158;2022-08-21T03:13:57;3.13;;;2.33;;
2211;SDS011;48849;48.758;9.158;2022-08-21T03:16:24;3.20;;;2.90;;
2211;SDS011;48849;48.758;9.158;2022-08-21T03:18:51;3.40;;;2.70;;
2211;SDS011;48849;48.758;9.158;2022-08-21T03:21:18;3.70;;;2.73;;
2211;SDS011;48849;48.758;9.158;2022-08-21T03:23:46;4.33;;;2.70;;
2211;SDS011;48849;48.758;9.158;2022-08-21T03:26:12;2.90;;;2.60;;
2211;SDS011;48849;48.758;9.158;2022-08-21T03:28:39;7.83;;;3.37;;
2211;SDS011;48849;48.758;9.158;2022-08-21T03:31:06;3.50;;;2.80;;
2211;SDS011;48849;48.758;9.158;2022-08-21T03:33:33;3.17;;;2.47;;
2211;SDS011;48849;48.758;9.158;2022-08-21T03:36:01;3.30;;;2.47;;
2211;SDS011;48849;48.758;9.158;2022-08-21T03:38:30;2.87;;;2.67;;
2211;SDS011;48849;48.758;9.158;2022-08-21T03:40:59;2.90;;;2.60;;
2211;SDS011;48849;48.758;9.158;2022-08-21T03:43:26;3.03;;;2.73;;
2211;SDS011;48849;48.758;9.158;2022-08-21T03:45:53;4.73;;;3.10;;
2211;SDS011;48849;48.758;9.158;2022-08-21T03:48:21;4.37;;;3.27;;
2211;SDS011;48849;48.758;9.158;2022-08-21T03:50:47;4.63;;;2.80;;
2211;SDS011;48849;48.758;9.158;2022-08-21T03:53:17;4.43;;;3.20;;
2211;SDS011;48849;48.758;9.158;2022-08-21T03:55:44;4.10;;;2.63;;
2211;SDS011;48849;48.758;9.158;2022-08-21T03:58:13;4.60;;;2.60;;
2211;SDS011;48849;48.758;9.158;2022-08-21T04:00:40;6.30;;;2.97;;
2211;SDS011;48849;48.758;9.158;2022-08-21T04:03:07;3.77;;;2.90;;
2211;SDS011;48849;48.758;9.158;2022-08-21T04:05:34;4.73;;;3.30;;
2211;SDS011;48849;48.758;9.158;2022-08-21T04:08:03;3.40;;;2.73;;
2211;SDS011;48849;48.758;9.158;2022-08-21T04:10:32;4.40;;;3.23;;
2211;SDS011;48849;48.758;9.158;2022-08-21T04:13:01;5.33;;;2.83;;
2211;SDS011;48849;48.758;9.158;2022-08-21T04:15:29;5.43;;;3.37;;
2211;SDS011;48849;48.758;9.158;2022-08-21T04:17:56;7.40;;;3.60;;
2211;SDS011;48849;48.758;9.158;2022-08-21T04:20:24;4.30;;;3.90;;
2211;SDS011;48849;48.758;9.158;2022-08-21T04:22:51;7.40;;;3.30;;
2211;SDS011;48849;48.758;9.158;2022-08-21T04:25:18;4.93;;;3.23;;
2211;SDS011;48849;48.758;9.158;2022-08-21T04:27:46;4.90;;;3.10;;
2211;SDS011;48849;48.758;9.158;2022-08-21T04:30:14;3.30;;;2.60;;
2211;SDS011;48849;48.758;9.158;2022-08-21T04:32:43;6.27;;;2.90;;
2211;SDS011;48849;48.758;9.158;2022-08-21T04:35:12;4.33;;;3.17;;
2211;SDS011;48849;48.758;9.158;2022-08-21T04:37:39;3.87;;;3.13;;
2211;SDS011;48849;48.758;9.158;2022-08-21T04:40:07;8.43;;;3.87;;
2211;SDS011;48849;48.758;9.158;2022-08-21T04:42:40;4.73;;;3.40;;
2211;SDS011;48849;48.758;9.158;2022-08-21T04:45:09;3.10;;;2.90;;
2211;SDS011;48849;48.758;9.158;2022-08-21T04:47:41;6.00;;;3.20;;
2211;SDS011;48849;48.758;9.158;2022-08-21T04:50:09;3.67;;;2.88;;
2211;SDS011;48849;48.758;9.158;2022-08-21T04:52:35;8.13;;;3.40;;
2211;SDS011;48849;48.758;9.158;2022-08-21T04:55:02;3.53;;;2.90;;
2211;SDS011;48849;48.758;9.158;2022-08-21T04:57:30;4.40;;;3.40;;
2211;SDS011;48849;48.758;9.158;2022-08-21T04:59:56;4.70;;;3.03;;
2211;SDS011;48849;48.758;9.158;2022-08-21T05:02:23;4.37;;;3.73;;
2211;SDS011;48849;48.758;9.158;2022-08-21T05:04:52;4.30;;;3.30;;
2211;SDS011;48849;48.758;9.158;2022-08-21T05:07:22;3.63;;;3.33;;
2211;SDS011;48849;48.758;9.158;2022-08-21T05:09:51;5.60;;;3.65;;
2211;SDS011;48849;48.758;9.158;2022-08-21T05:12:18;4.17;;;3.27;;
2211;SDS011;48849;48.758;9.158;2022-08-21T05:14:45;4.23;;;3.17;;
2211;SDS011;48849;48.758;9.158;2022-08-21T05:17:12;3.63;;;3.17;;
2211;SDS011;48849;48.758;9.158;2022-08-21T05:19:39;7.33;;;3.23;;
2211;SDS011;48849;48.758;9.158;2022-08-21T05:22:07;3.20;;;2.90;;
2211;SDS011;48849;48.758;9.158;2022-08-21T05:24:35;4.00;;;3.23;;
2211;SDS011;48849;48.758;9.158;2022-08-21T05:27:03;3.40;;;3.00;;
2211;SDS011;48849;48.758;9.158;2022-08-21T05:29:30;3.53;;;3.20;;
2211;SDS011;48849;48.758;9.158;2022-08-21T05:31:56;3.63;;;3.27;;
2211;SDS011;48849;48.758;9.158;2022-08-21T05:34:23;5.23;;;3.30;;
2211;SDS011;48849;48.758;9.158;2022-08-21T05:36:50;5.10;;;3.47;;
2211;SDS011;48849;48.758;9.158;2022-08-21T05:39:18;6.90;;;3.43;;
2211;SDS011;48849;48.758;9.158;2022-08-21T05:41:45;2.97;;;2.70;;
2211;SDS011;48849;48.758;9.158;2022-08-21T05:44:12;6.03;;;3.47;;
2211;SDS011;48849;48.758;9.158;2022-08-21T05:46:39;4.23;;;2.97;;
2211;SDS011;48849;48.758;9.158;2022-08-21T05:49:06;5.37;;;2.87;;
2211;SDS011;48849;48.758;9.158;2022-08-21T05:51:32;3.60;;;2.57;;
2211;SDS011;48849;48.758;9.158;2022-08-21T05:54:00;4.93;;;3.00;;
2211;SDS011;48849;48.758;9.158;2022-08-21T05:56:28;4.40;;;3.33;;
2211;SDS011;48849;48.758;9.158;2022-08-21T05:58:54;4.23;;;2.87;;
2211;SDS011;48849;48.758;9.158;2022-08-21T06:01:21;6.00;;;2.97;;
2211;SDS011;48849;48.758;9.158;2022-08-21T06:03:48;3.93;;;3.10;;
2211;SDS011;48849;48.758;9.158;2022-08-21T06:06:15;4.77;;;3.20;;
2211;SDS011;48849;48.758;9.158;2022-08-21T06:08:41;5.80;;;3.23;;
2211;SDS011;48849;48.758;9.158;2022-08-21T06:11:08;6.10;;;3.07;;
2211;SDS011;48849;48.758;9.158;2022-08-21T06:13:36;5.13;;;3.47;;
2211;SDS011;48849;48.758;9.158;2022-08-21T06:16:06;4.70;;;3.33;;
2211;SDS011;48849;48.758;9.158;2022-08-21T06:18:34;3.53;;;3.23;;
2211;SDS011;48849;48.758;9.158;2022-08-21T06:21:02;3.47;;;3.00;;
2211;SDS011;48849;48.758;9.158;2022-08-21T06:23:30;4.10;;;3.50;;
2211;SDS011;48849;48.758;9.158;2022-08-21T06:25:57;5.23;;;3.10;;
2211;SDS011;48849;48.758;9.158;2022-08-21T06:28:24;4.83;;;3.67;;
2211;SDS011;48849;48.758;9.158;2022-08-21T06:30:52;3.50;;;3.17;;
2211;SDS011;48849;48.758;9.158;2022-08-21T06:33:18;3.87;;;3.47;;
2211;SDS011;48849;48.758;9.158;2022-08-21T06:35:45;4.00;;;3.10;;
2211;SDS011;48849;48.758;9.158;2022-08-21T06:38:12;5.43;;;4.00;;
2211;SDS011;48849;48.758;9.158;2022-08-21T06:40:40;4.30;;;3.23;;
2211;SDS011;48849;48.758;9.158;2022-08-21T06:43:07;4.30;;;3.30;;
2211;SDS011;48849;48.758;9.158;2022-08-21T06:45:35;7.50;;;3.60;;
2211;SDS011;48849;48.758;9.158;2022-08-21T06:48:04;4.60;;;3.47;;
2211;SDS011;48849;48.758;9.158;2022-08-21T06:50:32;7.70;;;3.60;;
2211;SDS011;48849;48.758;9.158;2022-08-21T06:53:00;4.67;;;3.33;;
2211;SDS011;48849;48.758;9.158;2022-08-21T06:55:30;4.40;;;4.00;;
2211;SDS011;48849;48.758;9.158;2022-08-21T06:57:57;4.80;;;3.30;;
2211;SDS011;48849;48.758;9.158;2022-08-21T07:00:24;6.10;;;3.40;;
2211;SDS011;48849;48.758;9.158;2022-08-21T07:02:51;4.37;;;3.17;;
2211;SDS011;48849;48.758;9.158;2022-08-21T07:05:20;4.33;;;3.23;;
2211;SDS011;48849;48.758;9.158;2022-08-21T07:07:46;4.43;;;3.60;;
2211;SDS011;48849;48.758;9.158;2022-08-21T07:10:13;3.83;;;3.40;;
2211;SDS011;48849;48.758;9.158;2022-08-21T07:12:40;4.47;;;3.33;;
2211;SDS011;48849;48.758;9.158;2022-08-21T07:15:07;5.67;;;4.23;;
2211;SDS011;48849;48.758;9.158;2022-08-21T07:17:35;5.43;;;3.70;;
2211;SDS011;48849;48.758;9.158;2022-08-21T07:20:02;4.80;;;3.30;;
2211;SDS011;48849;48.758;9.158;2022-08-21T07:22:30;4.17;;;3.53;;
2211;SDS011;48849;48.758;9.158;2022-08-21T07:24:57;7.63;;;3.50;;
2211;SDS011;48849;48.758;9.158;2022-08-21T07:27:24;4.67;;;3.13;;
2211;SDS011;48849;48.758;9.158;2022-08-21T07:29:51;4.57;;;3.20;;
2211;SDS011;48849;48.758;9.158;2022-08-21T07:32:17;3.83;;;3.43;;
2211;SDS011;48849;48.758;9.158;2022-08-21T07:34:44;4.97;;;3.30;;
2211;SDS011;48849;48.758;9.158;2022-08-21T07:37:11;5.97;;;3.97;;
2211;SDS011;48849;48.758;9.158;2022-08-21T07:39:39;7.07;;;4.00;;
2211;SDS011;48849;48.758;9.158;2022-08-21T07:42:06;5.60;;;3.70;;
2211;SDS011;48849;48.758;9.158;2022-08-21T07:44:33;4.67;;;3.60;;
2211;SDS011;48849;48.758;9.158;2022-08-21T07:47:00;4.07;;;3.67;;
2211;SDS011;48849;48.758;9.158;2022-08-21T07:49:27;7.83;;;4.50;;
2211;SDS011;48849;48.758;9.158;2022-08-21T07:51:53;5.70;;;4.33;;
2211;SDS011;48849;48.758;9.158;2022-08-21T07:54:21;5.27;;;3.50;;
2211;SDS011;48849;48.758;9.158;2022-08-21T07:56:49;4.73;;;3.70;;
2211;SDS011;48849;48.758;9.158;2022-08-21T07:59:16;5.20;;;3.83;;
2211;SDS011;48849;48.758;9.158;2022-08-21T08:01:42;4.07;;;3.67;;
2211;SDS011;48849;48.758;9.158;2022-08-21T08:04:09;5.60;;;3.70;;
2211;SDS011;48849;48.758;9.158;2022-08-21T08:06:36;5.00;;;3.87;;
2211;SDS011;48849;48.758;9.158;2022-08-21T08:09:02;7.37;;;3.90;;
2211;SDS011;48849;48.758;9.158;2022-08-21T08:11:29;4.50;;;3.60;;
2211;SDS011;48849;48.758;9.158;2022-08-21T08:13:58;6.63;;;3.90;;
2211;SDS011;48849;48.758;9.158;2022-08-21T08:16:25;8.50;;;4.43;;
2211;SDS011;48849;48.758;9.158;2022-08-21T08:18:51;5.20;;;3.87;;
2211;SDS011;48849;48.758;9.158;2022-08-21T08:21:19;4.70;;;3.60;;
2211;SDS011;48849;48.758;9.158;2022-08-21T08:23:46;4.80;;;3.67;;
2211;SDS011;48849;48.758;9.158;2022-08-21T08:26:13;6.07;;;4.13;;
2211;SDS011;48849;48.758;9.158;2022-08-21T08:28:40;4.73;;;3.80;;
2211;SDS011;48849;48.758;9.158;2022-08-21T08:31:08;4.87;;;3.63;;
2211;SDS011;48849;48.758;9.158;2022-08-21T08:33:35;5.83;;;3.87;;
2211;SDS011;48849;48.758;9.158;2022-08-21T08:36:02;5.60;;;4.23;;
2211;SDS011;48849;48.758;9.158;2022-08-21T08:38:29;3.73;;;3.17;;
2211;SDS011;48849;48.758;9.158;2022-08-21T08:40:58;4.73;;;4.00;;
2211;SDS011;48849;48.758;9.158;2022-08-21T08:43:31;4.00;;;3.50;;
2211;SDS011;48849;48.758;9.158;2022-08-21T08:46:01;6.87;;;5.13;;
2211;SDS011;48849;48.758;9.158;2022-08-21T08:48:34;6.73;;;6.13;;
2211;SDS011;48849;48.758;9.158;2022-08-21T08:51:08;9.00;;;8.10;;
2211;SDS011;48849;48.758;9.158;2022-08-21T08:53:43;12.10;;;8.00;;
2211;SDS011;48849;48.758;9.158;2022-08-21T08:56:15;11.43;;;9.50;;
2211;SDS011;48849;48.758;9.158;2022-08-21T08:58:47;7.97;;;7.17;;
2211;SDS011;48849;48.758;9.158;2022-08-21T09:01:17;10.80;;;8.80;;
2211;SDS011;48849;48.758;9.158;2022-08-21T09:03:47;9.80;;;8.43;;
2211;SDS011;48849;48.758;9.158;2022-08-21T09:06:19;9.70;;;8.33;;
2211;SDS011;48849;48.758;9.158;2022-08-21T09:09:08;9.20;;;6.80;;
2211;SDS011;48849;48.758;9.158;2022-08-21T09:11:47;6.97;;;6.27;;
2211;SDS011;48849;48.758;9.158;2022-08-21T09:14:25;8.93;;;6.27;;
2211;SDS011;48849;48.758;9.158;2022-08-21T09:17:02;10.30;;;9.20;;
2211;SDS011;48849;48.758;9.158;2022-08-21T09:19:43;12.90;;;9.40;;
2211;SDS011;48849;48.758;9.158;2022-08-21T09:22:23;9.80;;;8.57;;
2211;SDS011;48849;48.758;9.158;2022-08-21T09:25:02;10.50;;;9.33;;
2211;SDS011;48849;48.758;9.158;2022-08-21T09:27:35;10.80;;;9.60;;
2211;SDS011;48849;48.758;9.158;2022-08-21T09:30:03;8.47;;;7.43;;
2211;SDS011;48849;48.758;9.158;2022-08-21T09:32:32;8.60;;;7.80;;
2211;SDS011;48849;48.758;9.158;2022-08-21T09:35:04;9.30;;;7.30;;
2211;SDS011;48849;48.758;9.158;2022-08-21T09:37:35;8.60;;;6.80;;
2211;SDS011;48849;48.758;9.158;2022-08-21T09:40:17;10.77;;;8.10;;
2211;SDS011;48849;48.758;9.158;2022-08-21T09:42:54;10.40;;;9.27;;
2211;SDS011;48849;48.758;9.158;2022-08-21T09:45:21;11.40;;;10.30;;
2211;SDS011;48849;48.758;9.158;2022-08-21T09:47:48;12.33;;;10.93;;
2211;SDS011;48849;48.758;9.158;2022-08-21T09:50:17;10.50;;;9.40;;
2211;SDS011;48849;48.758;9.158;2022-08-21T09:52:46;9.40;;;7.70;;
2211;SDS011;48849;48.758;9.158;2022-08-21T09:55:16;10.97;;;8.30;;
2211;SDS011;48849;48.758;9.158;2022-08-21T09:58:03;9.30;;;7.10;;
2211;SDS011;48849;48.758;9.158;2022-08-21T10:00:31;12.27;;;11.00;;
2211;SDS011;48849;48.758;9.158;2022-08-21T10:03:09;13.37;;;11.20;;
2211;SDS011;48849;48.758;9.158;2022-08-21T10:05:40;13.83;;;12.43;;
2211;SDS011;48849;48.758;9.158;2022-08-21T10:08:17;10.87;;;9.73;;
2211;SDS011;48849;48.758;9.158;2022-08-21T10:10:46;8.77;;;7.90;;
2211;SDS011;48849;48.758;9.158;2022-08-21T10:13:19;8.00;;;5.50;;
2211;SDS011;48849;48.758;9.158;2022-08-21T10:15:51;6.20;;;4.97;;
2211;SDS011;48849;48.758;9.158;2022-08-21T10:18:27;7.83;;;5.87;;
2211;SDS011;48849;48.758;9.158;2022-08-21T10:21:01;6.70;;;6.00;;
2211;SDS011;48849;48.758;9.158;2022-08-21T10:23:39;6.57;;;5.87;;
2211;SDS011;48849;48.758;9.158;2022-08-21T10:26:20;7.60;;;6.90;;
2211;SDS011;48849;48.758;9.158;2022-08-21T10:28:57;9.40;;;6.60;;
2211;SDS011;48849;48.758;9.158;2022-08-21T10:31:35;9.03;;;7.27;;
2211;SDS011;48849;48.758;9.158;2022-08-21T10:34:12;8.03;;;5.50;;
2211;SDS011;48849;48.758;9.158;2022-08-21T10:36:58;6.23;;;5.53;;
2211;SDS011;48849;48.758;9.158;2022-08-21T10:39:36;6.33;;;5.70;;
2211;SDS011;48849;48.758;9.158;2022-08-21T10:42:16;8.07;;;7.20;;
2211;SDS011;48849;48.758;9.158;2022-08-21T10:44:54;10.00;;;7.90;;
2211;SDS011;48849;48.758;9.158;2022-08-21T10:47:30;7.10;;;6.00;;
2211;SDS011;48849;48.758;9.158;2022-08-21T10:50:08;6.40;;;5.20;;
2211;SDS011;48849;48.758;9.158;2022-08-21T10:52:46;6.97;;;4.47;;
2211;SDS011;48849;48.758;9.158;2022-08-21T10:55:27;6.00;;;4.97;;
2211;SDS011;48849;48.758;9.158;2022-08-21T10:57:58;5.10;;;4.60;;
2211;SDS011;48849;48.758;9.158;2022-08-21T11:00:30;6.00;;;4.47;;
2211;SDS011;48849;48.758;9.158;2022-08-21T11:03:02;6.83;;;4.87;;
2211;SDS011;48849;48.758;9.158;2022-08-21T11:05:35;5.40;;;4.20;;
2211;SDS011;48849;48.758;9.158;2022-08-21T11:08:10;7.60;;;6.87;;
2211;SDS011;48849;48.758;9.158;2022-08-21T11:10:40;7.73;;;6.00;;
2211;SDS011;48849;48.758;9.158;2022-08-21T11:13:13;8.23;;;5.60;;
2211;SDS011;48849;48.758;9.158;2022-08-21T11:15:43;8.30;;;4.50;;
2211;SDS011;48849;48.758;9.158;2022-08-21T11:18:19;7.23;;;6.27;;
2211;SDS011;48849;48.758;9.158;2022-08-21T11:20:51;5.73;;;4.57;;
2211;SDS011;48849;48.758;9.158;2022-08-21T11:23:29;7.77;;;5.23;;
2211;SDS011;48849;48.758;9.158;2022-08-21T11:26:04;4.53;;;3.80;;
2211;SDS011;48849;48.758;9.158;2022-08-21T11:28:35;6.93;;;5.17;;
2211;SDS011;48849;48.758;9.158;2022-08-21T11:31:10;6.23;;;4.80;;
2211;SDS011;48849;48.758;9.158;2022-08-21T11:33:48;8.27;;;5.17;;
2211;SDS011;48849;48.758;9.158;2022-08-21T11:36:25;9.10;;;6.50;;
2211;SDS011;48849;48.758;9.158;2022-08-21T11:39:09;10.57;;;8.17;;
2211;SDS011;48849;48.758;9.158;2022-08-21T11:41:47;8.80;;;7.23;;
2211;SDS011;48849;48.758;9.158;2022-08-21T11:44:27;5.57;;;4.10;;
2211;SDS011;48849;48.758;9.158;2022-08-21T11:47:05;7.17;;;6.10;;
2211;SDS011;48849;48.758;9.158;2022-08-21T11:49:53;7.20;;;6.30;;
2211;SDS011;48849;48.758;9.158;2022-08-21T11:52:31;6.80;;;5.37;;
2211;SDS011;48849;48.758;9.158;2022-08-21T11:55:05;5.77;;;4.13;;
2211;SDS011;48849;48.758;9.158;2022-08-21T11:57:38;4.37;;;3.93;;
2211;SDS011;48849;48.758;9.158;2022-08-21T12:00:11;4.73;;;4.07;;
2211;SDS011;48849;48.758;9.158;2022-08-21T12:02:43;7.70;;;6.57;;
2211;SDS011;48849;48.758;9.158;2022-08-21T12:05:24;19.40;;;16.73;;
2211;SDS011;48849;48.758;9.158;2022-08-21T12:08:00;23.23;;;20.87;;
2211;SDS011;48849;48.758;9.158;2022-08-21T12:10:33;16.73;;;14.00;;
2211;SDS011;48849;48.758;9.158;2022-08-21T12:13:06;18.17;;;16.20;;
2211;SDS011;48849;48.758;9.158;2022-08-21T12:15:38;19.17;;;17.27;;
2211;SDS011;48849;48.758;9.158;2022-08-21T12:18:06;15.40;;;13.90;;
2211;SDS011;48849;48.758;9.158;2022-08-21T12:20:56;8.87;;;6.80;;
2211;SDS011;48849;48.758;9.158;2022-08-21T12:23:29;10.00;;;7.20;;
2211;SDS011;48849;48.758;9.158;2022-08-21T12:26:13;20.27;;;16.57;;
2211;SDS011;48849;48.758;9.158;2022-08-21T12:28:48;8.30;;;7.10;;
2211;SDS011;48849;48.758;9.158;2022-08-21T12:31:22;6.07;;;4.57;;
2211;SDS011;48849;48.758;9.158;2022-08-21T12:33:51;8.63;;;5.57;;
2211;SDS011;48849;48.758;9.158;2022-08-21T12:36:22;6.53;;;5.63;;
2211;SDS011;48849;48.758;9.158;2022-08-21T12:38:51;4.80;;;3.97;;
2211;SDS011;48849;48.758;9.158;2022-08-21T12:41:24;5.17;;;4.23;;
2211;SDS011;48849;48.758;9.158;2022-08-21T12:43:56;6.97;;;4.17;;
2211;SDS011;48849;48.758;9.158;2022-08-21T12:46:28;6.80;;;3.67;;
2211;SDS011;48849;48.758;9.158;2022-08-21T12:49:02;4.67;;;3.70;;
2211;SDS011;48849;48.758;9.158;2022-08-21T12:51:37;5.00;;;4.50;;
2211;SDS011;48849;48.758;9.158;2022-08-21T12:54:21;3.67;;;3.27;;
2211;SDS011;48849;48.758;9.158;2022-08-21T12:56:56;5.17;;;4.33;;
2211;SDS011;48849;48.758;9.158;2022-08-21T12:59:28;3.93;;;3.53;;
2211;SDS011;48849;48.758;9.158;2022-08-21T13:01:56;4.13;;;3.60;;
2211;SDS011;48849;48.758;9.158;2022-08-21T13:04:31;6.37;;;3.10;;
2211;SDS011;48849;48.758;9.158;2022-08-21T13:07:05;3.43;;;3.10;;
2211;SDS011;48849;48.758;9.158;2022-08-21T13:09:36;5.70;;;3.80;;
2211;SDS011;48849;48.758;9.158;2022-08-21T13:12:09;4.03;;;3.50;;
2211;SDS011;48849;48.758;9.158;2022-08-21T13:14:37;5.40;;;3.63;;
2211;SDS011;48849;48.758;9.158;2022-08-21T13:17:06;5.63;;;3.97;;
2211;SDS011;48849;48.758;9.158;2022-08-21T13:19:33;5.13;;;3.83;;
2211;SDS011;48849;48.758;9.158;2022-08-21T13:22:01;6.10;;;3.93;;
2211;SDS011;48849;48.758;9.158;2022-08-21T13:24:29;4.43;;;3.57;;
2211;SDS011;48849;48.758;9.158;2022-08-21T13:26:58;4.57;;;4.00;;
2211;SDS011;48849;48.758;9.158;2022-08-21T13:29:28;6.57;;;3.60;;
2211;SDS011;48849;48.758;9.158;2022-08-21T13:31:57;4.93;;;3.30;;
2211;SDS011;48849;48.758;9.158;2022-08-21T13:34:28;5.10;;;3.27;;
2211;SDS011;48849;48.758;9.158;2022-08-21T13:36:58;5.77;;;3.87;;
2211;SDS011;48849;48.758;9.158;2022-08-21T13:39:27;7.67;;;4.00;;
2211;SDS011;48849;48.758;9.158;2022-08-21T13:41:55;5.17;;;4.20;;
2211;SDS011;48849;48.758;9.158;2022-08-21T13:44:24;5.67;;;3.90;;
2211;SDS011;48849;48.758;9.158;2022-08-21T13:47:02;3.73;;;3.40;;
2211;SDS011;48849;48.758;9.158;2022-08-21T13:49:31;5.03;;;3.77;;
2211;SDS011;48849;48.758;9.158;2022-08-21T13:52:00;5.50;;;4.40;;
2211;SDS011;48849;48.758;9.158;2022-08-21T13:54:27;6.50;;;3.60;;
2211;SDS011;48849;48.758;9.158;2022-08-21T13:56:59;4.83;;;3.70;;
2211;SDS011;48849;48.758;9.158;2022-08-21T13:59:27;7.13;;;3.27;;
2211;SDS011;48849;48.758;9.158;2022-08-21T14:01:57;6.37;;;3.70;;
2211;SDS011;48849;48.758;9.158;2022-08-21T14:04:30;5.90;;;4.03;;
2211;SDS011;48849;48.758;9.158;2022-08-21T14:07:01;5.80;;;4.20;;
2211;SDS011;48849;48.758;9.158;2022-08-21T14:09:30;6.20;;;4.10;;
2211;SDS011;48849;48.758;9.158;2022-08-21T14:11:59;5.77;;;4.00;;
2211;SDS011;48849;48.758;9.158;2022-08-21T14:14:28;3.90;;;3.50;;
2211;SDS011;48849;48.758;9.158;2022-08-21T14:16:59;5.13;;;3.60;;
2211;SDS011;48849;48.758;9.158;2022-08-21T14:19:35;5.23;;;3.50;;
2211;SDS011;48849;48.758;9.158;2022-08-21T14:24:48;13.87;;;12.43;;
2211;SDS011;48849;48.758;9.158;2022-08-21T14:27:17;16.23;;;13.20;;
2211;SDS011;48849;48.758;9.158;2022-08-21T14:29:44;12.73;;;11.43;;
2211;SDS011;48849;48.758;9.158;2022-08-21T14:32:14;12.57;;;9.13;;
2211;SDS011;48849;48.758;9.158;2022-08-21T14:34:42;18.93;;;14.37;;
2211;SDS011;48849;48.758;9.158;2022-08-21T14:37:09;14.97;;;10.93;;
2211;SDS011;48849;48.758;9.158;2022-08-21T14:39:35;13.10;;;9.00;;
2211;SDS011;48849;48.758;9.158;2022-08-21T14:42:02;11.30;;;8.63;;
2211;SDS011;48849;48.758;9.158;2022-08-21T14:44:29;8.10;;;6.87;;
2211;SDS011;48849;48.758;9.158;2022-08-21T14:46:58;6.17;;;5.30;;
2211;SDS011;48849;48.758;9.158;2022-08-21T14:49:27;7.50;;;5.20;;
2211;SDS011;48849;48.758;9.158;2022-08-21T14:51:54;8.23;;;5.33;;
2211;SDS011;48849;48.758;9.158;2022-08-21T14:54:22;7.43;;;6.10;;
2211;SDS011;48849;48.758;9.158;2022-08-21T14:56:49;9.43;;;7.20;;
2211;SDS011;48849;48.758;9.158;2022-08-21T14:59:16;7.87;;;6.40;;
2211;SDS011;48849;48.758;9.158;2022-08-21T15:01:44;6.67;;;5.50;;
2211;SDS011;48849;48.758;9.158;2022-08-21T15:04:11;8.10;;;7.30;;
2211;SDS011;48849;48.758;9.158;2022-08-21T15:06:40;10.03;;;8.30;;
2211;SDS011;48849;48.758;9.158;2022-08-21T15:09:06;12.63;;;10.40;;
2211;SDS011;48849;48.758;9.158;2022-08-21T15:11:33;18.17;;;15.50;;
2211;SDS011;48849;48.758;9.158;2022-08-21T15:14:01;12.20;;;11.00;;
2211;SDS011;48849;48.758;9.158;2022-08-21T15:16:31;10.30;;;9.30;;
2211;SDS011;48849;48.758;9.158;2022-08-21T15:18:58;10.13;;;8.80;;